sensor_id;sensor_type;location;lat;lon;timestamp;P1;durP1;ratioP1;P2;durP2;ratioP2
49217;SDS011;35045;51.194;7.268;2023-03-14T00:02:26;6.53;;;1.77;;
49217;SDS011;35045;51.194;7.268;2023-03-14T00:04:55;7.70;;;2.20;;
49217;SDS011;35045;51.194;7.268;2023-03-14T00:07:22;5.65;;;1.98;;
49217;SDS011;35045;51.194;7.268;2023-03-14T00:09:50;6.50;;;2.00;;
49217;SDS011;35045;51.194;7.268;2023-03-14T00:12:17;4.97;;;1.92;;
49217;SDS011;35045;51.194;7.268;2023-03-14T00:14:43;8.85;;;2.35;;
49217;SDS011;35045;51.194;7.268;2023-03-14T00:17:09;6.78;;;2.08;;
49217;SDS011;35045;51.194;7.268;2023-03-14T00:19:36;4.28;;;1.70;;
49217;SDS011;35045;51.194;7.268;2023-03-14T00:22:02;6.03;;;1.67;;
49217;SDS011;35045;51.194;7.268;2023-03-14T00:24:28;4.93;;;1.85;;
49217;SDS011;35045;51.194;7.268;2023-03-14T00:26:54;4.78;;;1.60;;
49217;SDS011;35045;51.194;7.268;2023-03-14T00:29:20;7.20;;;2.17;;
49217;SDS011;35045;51.194;7.268;2023-03-14T00:31:47;7.65;;;2.17;;
49217;SDS011;35045;51.194;7.268;2023-03-14T00:34:13;7.38;;;1.80;;
49217;SDS011;35045;51.194;7.268;2023-03-14T00:36:39;6.88;;;1.83;;
49217;SDS011;35045;51.194;7.268;2023-03-14T00:39:05;5.32;;;2.00;;
49217;SDS011;35045;51.194;7.268;2023-03-14T00:41:31;5.35;;;1.90;;
49217;SDS011;35045;51.194;7.268;2023-03-14T00:43:57;8.15;;;1.85;;
49217;SDS011;35045;51.194;7.268;2023-03-14T00:46:24;6.30;;;2.10;;
49217;SDS011;35045;51.194;7.268;2023-03-14T00:48:50;6.72;;;1.70;;
49217;SDS011;35045;51.194;7.268;2023-03-14T00:51:16;7.97;;;2.30;;
49217;SDS011;35045;51.194;7.268;2023-03-14T00:53:43;7.72;;;1.88;;
49217;SDS011;35045;51.194;7.268;2023-03-14T00:56:10;6.28;;;1.80;;
49217;SDS011;35045;51.194;7.268;2023-03-14T00:58:37;5.15;;;1.70;;
49217;SDS011;35045;51.194;7.268;2023-03-14T01:01:05;6.60;;;1.75;;
49217;SDS011;35045;51.194;7.268;2023-03-14T01:03:33;8.77;;;2.08;;
49217;SDS011;35045;51.194;7.268;2023-03-14T01:06:09;5.45;;;1.95;;
49217;SDS011;35045;51.194;7.268;2023-03-14T01:08:39;8.43;;;2.42;;
49217;SDS011;35045;51.194;7.268;2023-03-14T01:11:07;9.32;;;2.38;;
49217;SDS011;35045;51.194;7.268;2023-03-14T01:13:34;5.95;;;1.70;;
49217;SDS011;35045;51.194;7.268;2023-03-14T01:16:02;7.47;;;2.22;;
49217;SDS011;35045;51.194;7.268;2023-03-14T01:18:31;9.02;;;2.40;;
49217;SDS011;35045;51.194;7.268;2023-03-14T01:20:58;7.50;;;1.83;;
49217;SDS011;35045;51.194;7.268;2023-03-14T01:23:24;4.45;;;1.42;;
49217;SDS011;35045;51.194;7.268;2023-03-14T01:25:50;5.47;;;1.67;;
49217;SDS011;35045;51.194;7.268;2023-03-14T01:28:16;4.38;;;1.27;;
49217;SDS011;35045;51.194;7.268;2023-03-14T01:30:42;4.45;;;1.27;;
49217;SDS011;35045;51.194;7.268;2023-03-14T01:33:09;4.38;;;1.20;;
49217;SDS011;35045;51.194;7.268;2023-03-14T01:35:35;4.63;;;1.20;;
49217;SDS011;35045;51.194;7.268;2023-03-14T01:38:01;3.70;;;1.30;;
49217;SDS011;35045;51.194;7.268;2023-03-14T01:40:27;6.35;;;1.60;;
49217;SDS011;35045;51.194;7.268;2023-03-14T01:42:54;5.30;;;1.60;;
49217;SDS011;35045;51.194;7.268;2023-03-14T01:48:26;5.80;;;1.75;;
49217;SDS011;35045;51.194;7.268;2023-03-14T01:50:56;5.20;;;1.42;;
49217;SDS011;35045;51.194;7.268;2023-03-14T01:53:25;5.90;;;1.50;;
49217;SDS011;35045;51.194;7.268;2023-03-14T01:55:51;3.53;;;1.23;;
49217;SDS011;35045;51.194;7.268;2023-03-14T01:58:21;7.55;;;1.75;;
49217;SDS011;35045;51.194;7.268;2023-03-14T02:00:53;4.10;;;1.33;;
49217;SDS011;35045;51.194;7.268;2023-03-14T02:03:20;7.15;;;1.75;;
49217;SDS011;35045;51.194;7.268;2023-03-14T02:05:49;7.00;;;1.92;;
49217;SDS011;35045;51.194;7.268;2023-03-14T02:08:19;7.80;;;1.55;;
49217;SDS011;35045;51.194;7.268;2023-03-14T02:10:48;7.18;;;2.00;;
49217;SDS011;35045;51.194;7.268;2023-03-14T02:13:16;5.82;;;1.70;;
49217;SDS011;35045;51.194;7.268;2023-03-14T02:15:44;6.18;;;1.80;;
49217;SDS011;35045;51.194;7.268;2023-03-14T02:18:10;6.90;;;2.00;;
49217;SDS011;35045;51.194;7.268;2023-03-14T02:21:28;9.68;;;2.30;;
49217;SDS011;35045;51.194;7.268;2023-03-14T02:23:43;7.63;;;2.05;;
49217;SDS011;35045;51.194;7.268;2023-03-14T02:26:26;5.47;;;1.45;;
49217;SDS011;35045;51.194;7.268;2023-03-14T02:28:57;5.15;;;1.63;;
49217;SDS011;35045;51.194;7.268;2023-03-14T02:31:23;6.20;;;1.80;;
49217;SDS011;35045;51.194;7.268;2023-03-14T02:33:50;3.97;;;1.20;;
49217;SDS011;35045;51.194;7.268;2023-03-14T02:36:17;3.40;;;1.50;;
49217;SDS011;35045;51.194;7.268;2023-03-14T02:41:29;6.32;;;1.92;;
49217;SDS011;35045;51.194;7.268;2023-03-14T02:43:55;6.72;;;2.05;;
49217;SDS011;35045;51.194;7.268;2023-03-14T02:46:21;9.02;;;2.10;;
49217;SDS011;35045;51.194;7.268;2023-03-14T02:48:55;10.85;;;3.33;;
49217;SDS011;35045;51.194;7.268;2023-03-14T02:51:27;5.75;;;2.03;;
49217;SDS011;35045;51.194;7.268;2023-03-14T02:53:54;6.53;;;2.15;;
49217;SDS011;35045;51.194;7.268;2023-03-14T02:56:20;7.93;;;1.83;;
49217;SDS011;35045;51.194;7.268;2023-03-14T02:58:46;6.57;;;2.03;;
49217;SDS011;35045;51.194;7.268;2023-03-14T03:01:12;8.23;;;1.98;;
49217;SDS011;35045;51.194;7.268;2023-03-14T03:03:39;5.22;;;1.60;;
49217;SDS011;35045;51.194;7.268;2023-03-14T03:06:05;3.85;;;1.63;;
49217;SDS011;35045;51.194;7.268;2023-03-14T03:08:31;6.30;;;1.98;;
49217;SDS011;35045;51.194;7.268;2023-03-14T03:10:58;5.03;;;1.50;;
49217;SDS011;35045;51.194;7.268;2023-03-14T03:13:24;6.40;;;1.40;;
49217;SDS011;35045;51.194;7.268;2023-03-14T03:15:51;5.22;;;1.45;;
49217;SDS011;35045;51.194;7.268;2023-03-14T03:18:17;5.78;;;1.30;;
49217;SDS011;35045;51.194;7.268;2023-03-14T03:20:43;6.32;;;1.40;;
49217;SDS011;35045;51.194;7.268;2023-03-14T03:23:09;6.70;;;1.30;;
49217;SDS011;35045;51.194;7.268;2023-03-14T03:25:36;3.55;;;1.30;;
49217;SDS011;35045;51.194;7.268;2023-03-14T03:28:02;7.78;;;1.60;;
49217;SDS011;35045;51.194;7.268;2023-03-14T03:30:34;5.20;;;1.60;;
49217;SDS011;35045;51.194;7.268;2023-03-14T03:33:03;5.68;;;1.52;;
49217;SDS011;35045;51.194;7.268;2023-03-14T03:35:29;5.82;;;1.75;;
49217;SDS011;35045;51.194;7.268;2023-03-14T03:37:56;5.22;;;1.80;;
49217;SDS011;35045;51.194;7.268;2023-03-14T03:40:22;5.10;;;1.83;;
49217;SDS011;35045;51.194;7.268;2023-03-14T03:42:48;5.15;;;1.48;;
49217;SDS011;35045;51.194;7.268;2023-03-14T03:45:14;5.10;;;1.92;;
49217;SDS011;35045;51.194;7.268;2023-03-14T03:47:40;8.65;;;2.25;;
49217;SDS011;35045;51.194;7.268;2023-03-14T03:50:06;5.28;;;1.90;;
49217;SDS011;35045;51.194;7.268;2023-03-14T03:52:33;5.93;;;2.15;;
49217;SDS011;35045;51.194;7.268;2023-03-14T03:55:00;7.13;;;1.83;;
49217;SDS011;35045;51.194;7.268;2023-03-14T03:57:26;7.90;;;1.80;;
49217;SDS011;35045;51.194;7.268;2023-03-14T03:59:52;5.93;;;2.10;;
49217;SDS011;35045;51.194;7.268;2023-03-14T04:02:18;5.55;;;1.90;;
49217;SDS011;35045;51.194;7.268;2023-03-14T04:04:44;7.68;;;2.22;;
49217;SDS011;35045;51.194;7.268;2023-03-14T04:07:10;5.93;;;1.83;;
49217;SDS011;35045;51.194;7.268;2023-03-14T04:09:39;8.35;;;2.47;;
49217;SDS011;35045;51.194;7.268;2023-03-14T04:12:05;6.72;;;2.00;;
49217;SDS011;35045;51.194;7.268;2023-03-14T04:14:32;8.48;;;2.28;;
49217;SDS011;35045;51.194;7.268;2023-03-14T04:16:58;9.10;;;2.67;;
49217;SDS011;35045;51.194;7.268;2023-03-14T04:19:24;7.97;;;2.33;;
49217;SDS011;35045;51.194;7.268;2023-03-14T04:21:50;7.18;;;2.22;;
49217;SDS011;35045;51.194;7.268;2023-03-14T04:24:16;7.47;;;1.85;;
49217;SDS011;35045;51.194;7.268;2023-03-14T04:26:42;7.10;;;2.20;;
49217;SDS011;35045;51.194;7.268;2023-03-14T04:29:08;8.10;;;1.95;;
49217;SDS011;35045;51.194;7.268;2023-03-14T04:31:36;6.70;;;1.98;;
49217;SDS011;35045;51.194;7.268;2023-03-14T04:34:03;6.95;;;1.80;;
49217;SDS011;35045;51.194;7.268;2023-03-14T04:36:29;11.10;;;3.45;;
49217;SDS011;35045;51.194;7.268;2023-03-14T04:38:55;7.68;;;2.50;;
49217;SDS011;35045;51.194;7.268;2023-03-14T04:41:21;10.50;;;2.38;;
49217;SDS011;35045;51.194;7.268;2023-03-14T04:43:47;8.10;;;2.28;;
49217;SDS011;35045;51.194;7.268;2023-03-14T04:46:13;8.68;;;2.33;;
49217;SDS011;35045;51.194;7.268;2023-03-14T04:48:40;7.90;;;2.13;;
49217;SDS011;35045;51.194;7.268;2023-03-14T04:51:06;6.38;;;2.10;;
49217;SDS011;35045;51.194;7.268;2023-03-14T04:53:32;8.27;;;2.17;;
49217;SDS011;35045;51.194;7.268;2023-03-14T04:55:59;8.18;;;2.13;;
49217;SDS011;35045;51.194;7.268;2023-03-14T04:58:25;9.02;;;2.58;;
49217;SDS011;35045;51.194;7.268;2023-03-14T05:00:52;8.00;;;2.28;;
49217;SDS011;35045;51.194;7.268;2023-03-14T05:03:18;8.73;;;2.60;;
49217;SDS011;35045;51.194;7.268;2023-03-14T05:05:45;7.28;;;2.42;;
49217;SDS011;35045;51.194;7.268;2023-03-14T05:08:11;6.10;;;2.22;;
49217;SDS011;35045;51.194;7.268;2023-03-14T05:10:38;5.68;;;2.20;;
49217;SDS011;35045;51.194;7.268;2023-03-14T05:13:04;10.18;;;2.17;;
49217;SDS011;35045;51.194;7.268;2023-03-14T05:15:30;6.32;;;1.88;;
49217;SDS011;35045;51.194;7.268;2023-03-14T05:17:56;8.77;;;2.47;;
49217;SDS011;35045;51.194;7.268;2023-03-14T05:20:22;7.65;;;2.47;;
49217;SDS011;35045;51.194;7.268;2023-03-14T05:22:49;6.18;;;1.95;;
49217;SDS011;35045;51.194;7.268;2023-03-14T05:25:15;6.50;;;1.80;;
49217;SDS011;35045;51.194;7.268;2023-03-14T05:27:41;6.85;;;1.90;;
49217;SDS011;35045;51.194;7.268;2023-03-14T05:30:07;9.55;;;2.22;;
49217;SDS011;35045;51.194;7.268;2023-03-14T05:32:34;6.95;;;1.83;;
49217;SDS011;35045;51.194;7.268;2023-03-14T05:35:00;6.85;;;1.95;;
49217;SDS011;35045;51.194;7.268;2023-03-14T05:37:27;4.72;;;1.80;;
49217;SDS011;35045;51.194;7.268;2023-03-14T05:39:53;8.27;;;1.70;;
49217;SDS011;35045;51.194;7.268;2023-03-14T05:42:19;7.88;;;2.53;;
49217;SDS011;35045;51.194;7.268;2023-03-14T05:44:46;6.63;;;2.15;;
49217;SDS011;35045;51.194;7.268;2023-03-14T05:47:12;3.72;;;1.52;;
49217;SDS011;35045;51.194;7.268;2023-03-14T05:49:38;4.30;;;1.65;;
49217;SDS011;35045;51.194;7.268;2023-03-14T05:52:04;5.82;;;1.70;;
49217;SDS011;35045;51.194;7.268;2023-03-14T05:54:30;5.72;;;2.10;;
49217;SDS011;35045;51.194;7.268;2023-03-14T05:56:57;5.07;;;1.48;;
49217;SDS011;35045;51.194;7.268;2023-03-14T05:59:23;4.80;;;1.80;;
49217;SDS011;35045;51.194;7.268;2023-03-14T06:01:49;4.63;;;1.42;;
49217;SDS011;35045;51.194;7.268;2023-03-14T06:04:15;4.65;;;1.38;;
49217;SDS011;35045;51.194;7.268;2023-03-14T06:06:41;4.15;;;1.30;;
49217;SDS011;35045;51.194;7.268;2023-03-14T06:09:08;7.35;;;2.38;;
49217;SDS011;35045;51.194;7.268;2023-03-14T06:11:34;5.15;;;2.15;;
49217;SDS011;35045;51.194;7.268;2023-03-14T06:14:00;3.00;;;1.30;;
49217;SDS011;35045;51.194;7.268;2023-03-14T06:16:27;5.95;;;1.50;;
49217;SDS011;35045;51.194;7.268;2023-03-14T06:18:53;2.88;;;1.27;;
49217;SDS011;35045;51.194;7.268;2023-03-14T06:21:19;3.55;;;1.40;;
49217;SDS011;35045;51.194;7.268;2023-03-14T06:23:45;4.18;;;1.40;;
49217;SDS011;35045;51.194;7.268;2023-03-14T06:26:11;3.72;;;1.20;;
49217;SDS011;35045;51.194;7.268;2023-03-14T06:28:38;3.05;;;1.17;;
49217;SDS011;35045;51.194;7.268;2023-03-14T06:31:04;3.45;;;1.30;;
49217;SDS011;35045;51.194;7.268;2023-03-14T06:33:31;2.90;;;1.00;;
49217;SDS011;35045;51.194;7.268;2023-03-14T06:35:57;3.25;;;1.23;;
49217;SDS011;35045;51.194;7.268;2023-03-14T06:38:23;3.33;;;0.90;;
49217;SDS011;35045;51.194;7.268;2023-03-14T06:40:49;3.97;;;1.27;;
49217;SDS011;35045;51.194;7.268;2023-03-14T06:43:15;2.92;;;1.00;;
49217;SDS011;35045;51.194;7.268;2023-03-14T06:45:41;2.95;;;0.93;;
49217;SDS011;35045;51.194;7.268;2023-03-14T06:48:08;2.97;;;0.90;;
49217;SDS011;35045;51.194;7.268;2023-03-14T06:50:34;4.18;;;1.25;;
49217;SDS011;35045;51.194;7.268;2023-03-14T06:53:01;2.22;;;1.05;;
49217;SDS011;35045;51.194;7.268;2023-03-14T06:55:28;2.20;;;1.00;;
49217;SDS011;35045;51.194;7.268;2023-03-14T06:57:54;3.33;;;1.00;;
49217;SDS011;35045;51.194;7.268;2023-03-14T07:00:21;2.85;;;0.98;;
49217;SDS011;35045;51.194;7.268;2023-03-14T07:02:47;2.88;;;0.90;;
49217;SDS011;35045;51.194;7.268;2023-03-14T07:05:13;2.30;;;1.10;;
49217;SDS011;35045;51.194;7.268;2023-03-14T07:07:39;1.40;;;0.82;;
49217;SDS011;35045;51.194;7.268;2023-03-14T07:10:06;3.20;;;1.00;;
49217;SDS011;35045;51.194;7.268;2023-03-14T07:12:34;1.98;;;0.95;;
49217;SDS011;35045;51.194;7.268;2023-03-14T07:15:00;2.15;;;0.85;;
49217;SDS011;35045;51.194;7.268;2023-03-14T07:17:41;2.10;;;1.10;;
49217;SDS011;35045;51.194;7.268;2023-03-14T07:20:08;1.92;;;0.90;;
49217;SDS011;35045;51.194;7.268;2023-03-14T07:22:34;1.80;;;1.00;;
49217;SDS011;35045;51.194;7.268;2023-03-14T07:25:00;2.85;;;0.95;;
49217;SDS011;35045;51.194;7.268;2023-03-14T07:27:27;3.05;;;0.95;;
49217;SDS011;35045;51.194;7.268;2023-03-14T07:29:53;2.03;;;1.00;;
49217;SDS011;35045;51.194;7.268;2023-03-14T07:32:19;1.92;;;1.02;;
49217;SDS011;35045;51.194;7.268;2023-03-14T07:34:45;3.67;;;1.13;;
49217;SDS011;35045;51.194;7.268;2023-03-14T07:37:11;2.22;;;1.00;;
49217;SDS011;35045;51.194;7.268;2023-03-14T07:39:37;3.28;;;1.27;;
49217;SDS011;35045;51.194;7.268;2023-03-14T07:42:03;3.63;;;1.10;;
49217;SDS011;35045;51.194;7.268;2023-03-14T07:44:30;2.50;;;1.15;;
49217;SDS011;35045;51.194;7.268;2023-03-14T07:46:56;1.70;;;1.02;;
49217;SDS011;35045;51.194;7.268;2023-03-14T07:49:22;2.55;;;1.00;;
49217;SDS011;35045;51.194;7.268;2023-03-14T07:51:48;4.22;;;1.20;;
49217;SDS011;35045;51.194;7.268;2023-03-14T07:54:15;2.72;;;1.10;;
49217;SDS011;35045;51.194;7.268;2023-03-14T07:56:42;4.03;;;1.10;;
49217;SDS011;35045;51.194;7.268;2023-03-14T07:59:08;3.40;;;1.20;;
49217;SDS011;35045;51.194;7.268;2023-03-14T08:01:34;4.35;;;1.30;;
49217;SDS011;35045;51.194;7.268;2023-03-14T08:04:00;4.15;;;1.20;;
49217;SDS011;35045;51.194;7.268;2023-03-14T08:06:27;5.00;;;1.17;;
49217;SDS011;35045;51.194;7.268;2023-03-14T08:08:53;2.35;;;1.15;;
49217;SDS011;35045;51.194;7.268;2023-03-14T08:11:19;3.80;;;1.02;;
49217;SDS011;35045;51.194;7.268;2023-03-14T08:13:45;2.63;;;1.17;;
49217;SDS011;35045;51.194;7.268;2023-03-14T08:16:15;4.65;;;1.20;;
49217;SDS011;35045;51.194;7.268;2023-03-14T08:18:43;3.13;;;1.30;;
49217;SDS011;35045;51.194;7.268;2023-03-14T08:21:09;2.78;;;1.40;;
49217;SDS011;35045;51.194;7.268;2023-03-14T08:23:36;3.03;;;1.23;;
49217;SDS011;35045;51.194;7.268;2023-03-14T08:26:02;4.72;;;1.60;;
49217;SDS011;35045;51.194;7.268;2023-03-14T08:28:28;4.05;;;1.50;;
49217;SDS011;35045;51.194;7.268;2023-03-14T08:30:56;4.32;;;1.70;;
49217;SDS011;35045;51.194;7.268;2023-03-14T08:33:23;4.93;;;1.70;;
49217;SDS011;35045;51.194;7.268;2023-03-14T08:35:53;5.25;;;1.45;;
49217;SDS011;35045;51.194;7.268;2023-03-14T08:38:20;2.95;;;1.27;;
49217;SDS011;35045;51.194;7.268;2023-03-14T08:40:46;3.63;;;1.60;;
49217;SDS011;35045;51.194;7.268;2023-03-14T08:43:13;3.95;;;1.63;;
49217;SDS011;35045;51.194;7.268;2023-03-14T08:45:39;4.13;;;1.92;;
49217;SDS011;35045;51.194;7.268;2023-03-14T08:48:05;3.30;;;1.70;;
49217;SDS011;35045;51.194;7.268;2023-03-14T08:50:31;3.53;;;1.65;;
49217;SDS011;35045;51.194;7.268;2023-03-14T08:52:57;3.40;;;1.63;;
49217;SDS011;35045;51.194;7.268;2023-03-14T08:55:26;3.60;;;1.90;;
49217;SDS011;35045;51.194;7.268;2023-03-14T08:57:55;3.40;;;1.58;;
49217;SDS011;35045;51.194;7.268;2023-03-14T09:00:21;4.28;;;1.63;;
49217;SDS011;35045;51.194;7.268;2023-03-14T09:02:48;3.25;;;1.60;;
49217;SDS011;35045;51.194;7.268;2023-03-14T09:05:14;3.00;;;1.40;;
49217;SDS011;35045;51.194;7.268;2023-03-14T09:07:40;3.45;;;1.55;;
49217;SDS011;35045;51.194;7.268;2023-03-14T09:10:07;2.90;;;1.50;;
49217;SDS011;35045;51.194;7.268;2023-03-14T09:12:34;5.10;;;1.80;;
49217;SDS011;35045;51.194;7.268;2023-03-14T09:15:00;4.22;;;1.65;;
49217;SDS011;35045;51.194;7.268;2023-03-14T09:17:26;4.55;;;2.00;;
49217;SDS011;35045;51.194;7.268;2023-03-14T09:19:52;4.38;;;2.05;;
49217;SDS011;35045;51.194;7.268;2023-03-14T09:22:19;4.03;;;2.00;;
49217;SDS011;35045;51.194;7.268;2023-03-14T09:24:46;3.53;;;1.83;;
49217;SDS011;35045;51.194;7.268;2023-03-14T09:27:12;4.20;;;1.88;;
49217;SDS011;35045;51.194;7.268;2023-03-14T09:29:38;4.88;;;1.92;;
49217;SDS011;35045;51.194;7.268;2023-03-14T09:32:05;4.53;;;2.13;;
49217;SDS011;35045;51.194;7.268;2023-03-14T09:34:31;4.03;;;1.70;;
49217;SDS011;35045;51.194;7.268;2023-03-14T09:36:57;3.55;;;1.52;;
49217;SDS011;35045;51.194;7.268;2023-03-14T09:39:23;4.90;;;1.75;;
49217;SDS011;35045;51.194;7.268;2023-03-14T09:41:50;3.88;;;1.50;;
49217;SDS011;35045;51.194;7.268;2023-03-14T09:44:21;2.83;;;1.38;;
49217;SDS011;35045;51.194;7.268;2023-03-14T09:46:53;2.85;;;1.40;;
49217;SDS011;35045;51.194;7.268;2023-03-14T09:49:33;3.03;;;1.52;;
49217;SDS011;35045;51.194;7.268;2023-03-14T09:52:02;4.45;;;1.63;;
49217;SDS011;35045;51.194;7.268;2023-03-14T09:54:53;3.65;;;1.20;;
49217;SDS011;35045;51.194;7.268;2023-03-14T09:57:55;5.28;;;1.27;;
49217;SDS011;35045;51.194;7.268;2023-03-14T10:00:28;2.42;;;1.10;;
49217;SDS011;35045;51.194;7.268;2023-03-14T10:02:57;1.63;;;0.90;;
49217;SDS011;35045;51.194;7.268;2023-03-14T10:05:32;1.33;;;0.80;;
49217;SDS011;35045;51.194;7.268;2023-03-14T10:07:58;1.60;;;0.90;;
49217;SDS011;35045;51.194;7.268;2023-03-14T10:10:25;2.95;;;1.00;;
49217;SDS011;35045;51.194;7.268;2023-03-14T10:12:58;2.22;;;0.98;;
49217;SDS011;35045;51.194;7.268;2023-03-14T10:15:39;2.28;;;1.27;;
49217;SDS011;35045;51.194;7.268;2023-03-14T10:18:10;3.35;;;1.42;;
49217;SDS011;35045;51.194;7.268;2023-03-14T10:20:39;2.78;;;1.42;;
49217;SDS011;35045;51.194;7.268;2023-03-14T10:25:40;3.35;;;1.70;;
49217;SDS011;35045;51.194;7.268;2023-03-14T10:28:23;4.45;;;1.92;;
49217;SDS011;35045;51.194;7.268;2023-03-14T10:30:49;4.80;;;1.90;;
49217;SDS011;35045;51.194;7.268;2023-03-14T10:35:59;5.43;;;1.90;;
49217;SDS011;35045;51.194;7.268;2023-03-14T10:38:32;4.43;;;2.00;;
49217;SDS011;35045;51.194;7.268;2023-03-14T10:41:00;4.85;;;2.00;;
49217;SDS011;35045;51.194;7.268;2023-03-14T10:43:30;5.03;;;2.00;;
49217;SDS011;35045;51.194;7.268;2023-03-14T10:45:58;4.03;;;1.67;;
49217;SDS011;35045;51.194;7.268;2023-03-14T10:48:34;3.60;;;1.77;;
49217;SDS011;35045;51.194;7.268;2023-03-14T10:51:10;4.63;;;2.30;;
49217;SDS011;35045;51.194;7.268;2023-03-14T10:53:47;4.65;;;2.10;;
49217;SDS011;35045;51.194;7.268;2023-03-14T10:56:19;4.45;;;2.15;;
49217;SDS011;35045;51.194;7.268;2023-03-14T10:58:47;6.63;;;2.47;;
49217;SDS011;35045;51.194;7.268;2023-03-14T11:01:25;4.80;;;2.17;;
49217;SDS011;35045;51.194;7.268;2023-03-14T11:07:23;4.88;;;2.20;;
49217;SDS011;35045;51.194;7.268;2023-03-14T11:12:49;5.30;;;2.50;;
49217;SDS011;35045;51.194;7.268;2023-03-14T11:24:27;3.47;;;1.70;;
49217;SDS011;35045;51.194;7.268;2023-03-14T11:27:42;4.38;;;2.25;;
49217;SDS011;35045;51.194;7.268;2023-03-14T11:33:16;4.97;;;2.55;;
49217;SDS011;35045;51.194;7.268;2023-03-14T11:41:09;4.70;;;1.88;;
49217;SDS011;35045;51.194;7.268;2023-03-14T11:43:48;3.80;;;1.90;;
49217;SDS011;35045;51.194;7.268;2023-03-14T11:46:26;3.83;;;1.75;;
49217;SDS011;35045;51.194;7.268;2023-03-14T11:48:59;4.68;;;1.75;;
49217;SDS011;35045;51.194;7.268;2023-03-14T11:51:34;5.75;;;2.30;;
49217;SDS011;35045;51.194;7.268;2023-03-14T11:57:13;3.75;;;1.88;;
49217;SDS011;35045;51.194;7.268;2023-03-14T12:00:04;4.95;;;2.10;;
49217;SDS011;35045;51.194;7.268;2023-03-14T12:02:57;4.65;;;2.22;;
49217;SDS011;35045;51.194;7.268;2023-03-14T12:05:59;5.05;;;2.50;;
49217;SDS011;35045;51.194;7.268;2023-03-14T12:08:55;4.80;;;2.40;;
49217;SDS011;35045;51.194;7.268;2023-03-14T12:13:55;5.20;;;2.30;;
49217;SDS011;35045;51.194;7.268;2023-03-14T12:18:57;5.20;;;2.13;;
49217;SDS011;35045;51.194;7.268;2023-03-14T12:21:50;5.55;;;1.90;;
49217;SDS011;35045;51.194;7.268;2023-03-14T12:24:23;4.13;;;1.95;;
49217;SDS011;35045;51.194;7.268;2023-03-14T12:26:57;4.63;;;2.15;;
49217;SDS011;35045;51.194;7.268;2023-03-14T12:29:25;5.78;;;2.28;;
49217;SDS011;35045;51.194;7.268;2023-03-14T12:37:10;4.78;;;2.20;;
49217;SDS011;35045;51.194;7.268;2023-03-14T12:40:12;5.13;;;2.00;;
49217;SDS011;35045;51.194;7.268;2023-03-14T12:42:58;4.80;;;2.33;;
49217;SDS011;35045;51.194;7.268;2023-03-14T12:45:30;5.25;;;2.47;;
49217;SDS011;35045;51.194;7.268;2023-03-14T12:48:01;7.20;;;3.42;;
49217;SDS011;35045;51.194;7.268;2023-03-14T12:50:38;6.43;;;2.53;;
49217;SDS011;35045;51.194;7.268;2023-03-14T12:53:31;5.43;;;2.67;;
49217;SDS011;35045;51.194;7.268;2023-03-14T12:56:24;5.47;;;2.80;;
49217;SDS011;35045;51.194;7.268;2023-03-14T12:59:11;5.68;;;2.90;;
49217;SDS011;35045;51.194;7.268;2023-03-14T13:04:43;6.97;;;2.72;;
49217;SDS011;35045;51.194;7.268;2023-03-14T13:15:33;7.30;;;2.35;;
49217;SDS011;35045;51.194;7.268;2023-03-14T13:18:10;7.18;;;2.42;;
49217;SDS011;35045;51.194;7.268;2023-03-14T13:20:55;5.32;;;2.10;;
49217;SDS011;35045;51.194;7.268;2023-03-14T13:23:32;6.82;;;2.35;;
49217;SDS011;35045;51.194;7.268;2023-03-14T13:26:01;6.20;;;2.10;;
49217;SDS011;35045;51.194;7.268;2023-03-14T13:28:27;6.32;;;2.13;;
49217;SDS011;35045;51.194;7.268;2023-03-14T13:31:00;7.55;;;2.40;;
49217;SDS011;35045;51.194;7.268;2023-03-14T13:33:28;7.65;;;2.20;;
49217;SDS011;35045;51.194;7.268;2023-03-14T13:38:23;9.10;;;2.15;;
49217;SDS011;35045;51.194;7.268;2023-03-14T13:40:51;5.97;;;1.65;;
49217;SDS011;35045;51.194;7.268;2023-03-14T13:43:31;11.38;;;2.13;;
49217;SDS011;35045;51.194;7.268;2023-03-14T13:46:05;11.43;;;2.63;;
49217;SDS011;35045;51.194;7.268;2023-03-14T13:48:43;6.30;;;2.40;;
49217;SDS011;35045;51.194;7.268;2023-03-14T13:51:12;10.40;;;2.30;;
49217;SDS011;35045;51.194;7.268;2023-03-14T13:56:13;14.90;;;3.33;;
49217;SDS011;35045;51.194;7.268;2023-03-14T13:58:39;11.63;;;3.28;;
49217;SDS011;35045;51.194;7.268;2023-03-14T14:01:19;14.13;;;3.53;;
49217;SDS011;35045;51.194;7.268;2023-03-14T14:03:51;8.55;;;3.10;;
49217;SDS011;35045;51.194;7.268;2023-03-14T14:06:22;14.68;;;3.40;;
49217;SDS011;35045;51.194;7.268;2023-03-14T14:08:53;12.35;;;2.63;;
49217;SDS011;35045;51.194;7.268;2023-03-14T14:11:31;7.63;;;2.17;;
49217;SDS011;35045;51.194;7.268;2023-03-14T14:14:32;16.13;;;2.92;;
49217;SDS011;35045;51.194;7.268;2023-03-14T14:17:03;11.88;;;2.95;;
49217;SDS011;35045;51.194;7.268;2023-03-14T14:19:33;9.52;;;3.03;;
49217;SDS011;35045;51.194;7.268;2023-03-14T14:22:01;13.73;;;3.45;;
49217;SDS011;35045;51.194;7.268;2023-03-14T14:24:29;14.93;;;4.22;;
49217;SDS011;35045;51.194;7.268;2023-03-14T14:27:01;13.07;;;2.90;;
49217;SDS011;35045;51.194;7.268;2023-03-14T14:29:34;10.75;;;3.05;;
49217;SDS011;35045;51.194;7.268;2023-03-14T14:34:46;13.68;;;3.13;;
49217;SDS011;35045;51.194;7.268;2023-03-14T14:37:22;11.68;;;2.80;;
49217;SDS011;35045;51.194;7.268;2023-03-14T14:39:53;12.98;;;2.97;;
49217;SDS011;35045;51.194;7.268;2023-03-14T14:42:24;14.85;;;3.38;;
49217;SDS011;35045;51.194;7.268;2023-03-14T14:44:53;17.75;;;3.65;;
49217;SDS011;35045;51.194;7.268;2023-03-14T14:47:20;11.20;;;2.47;;
49217;SDS011;35045;51.194;7.268;2023-03-14T14:49:49;12.25;;;2.85;;
49217;SDS011;35045;51.194;7.268;2023-03-14T14:52:18;14.93;;;3.08;;
49217;SDS011;35045;51.194;7.268;2023-03-14T14:55:00;16.00;;;3.60;;
49217;SDS011;35045;51.194;7.268;2023-03-14T14:57:28;14.52;;;3.88;;
49217;SDS011;35045;51.194;7.268;2023-03-14T15:00:05;11.50;;;3.20;;
49217;SDS011;35045;51.194;7.268;2023-03-14T15:02:37;13.63;;;3.30;;
49217;SDS011;35045;51.194;7.268;2023-03-14T15:05:13;13.38;;;3.15;;
49217;SDS011;35045;51.194;7.268;2023-03-14T15:07:39;11.38;;;2.83;;
49217;SDS011;35045;51.194;7.268;2023-03-14T15:10:06;12.98;;;3.72;;
49217;SDS011;35045;51.194;7.268;2023-03-14T15:12:35;12.20;;;3.17;;
49217;SDS011;35045;51.194;7.268;2023-03-14T15:15:02;14.43;;;3.17;;
49217;SDS011;35045;51.194;7.268;2023-03-14T15:17:28;12.50;;;3.13;;
49217;SDS011;35045;51.194;7.268;2023-03-14T15:19:54;19.75;;;4.05;;
49217;SDS011;35045;51.194;7.268;2023-03-14T15:22:23;13.55;;;3.30;;
49217;SDS011;35045;51.194;7.268;2023-03-14T15:24:49;8.60;;;3.13;;
49217;SDS011;35045;51.194;7.268;2023-03-14T15:27:16;12.40;;;3.35;;
49217;SDS011;35045;51.194;7.268;2023-03-14T15:29:44;11.88;;;2.65;;
49217;SDS011;35045;51.194;7.268;2023-03-14T15:32:13;13.43;;;2.63;;
49217;SDS011;35045;51.194;7.268;2023-03-14T15:34:41;11.93;;;2.83;;
49217;SDS011;35045;51.194;7.268;2023-03-14T15:37:10;9.50;;;2.13;;
49217;SDS011;35045;51.194;7.268;2023-03-14T15:39:38;14.57;;;2.47;;
49217;SDS011;35045;51.194;7.268;2023-03-14T15:42:05;10.88;;;2.60;;
49217;SDS011;35045;51.194;7.268;2023-03-14T15:44:31;8.25;;;2.17;;
49217;SDS011;35045;51.194;7.268;2023-03-14T15:46:57;9.38;;;2.30;;
49217;SDS011;35045;51.194;7.268;2023-03-14T15:49:24;9.38;;;2.67;;
49217;SDS011;35045;51.194;7.268;2023-03-14T15:51:50;8.57;;;2.67;;
49217;SDS011;35045;51.194;7.268;2023-03-14T15:54:16;7.15;;;2.13;;
49217;SDS011;35045;51.194;7.268;2023-03-14T15:56:42;9.23;;;2.60;;
49217;SDS011;35045;51.194;7.268;2023-03-14T15:59:09;9.30;;;2.30;;
49217;SDS011;35045;51.194;7.268;2023-03-14T16:01:36;12.65;;;2.60;;
49217;SDS011;35045;51.194;7.268;2023-03-14T16:04:02;10.10;;;2.05;;
49217;SDS011;35045;51.194;7.268;2023-03-14T16:06:28;9.02;;;2.75;;